Time,TemperatureF,DewpointF,PressureIn,WindDirection,WindDirectionDegrees,WindSpeedMPH,WindSpeedGustMPH,Humidity,HourlyPrecipIn,Conditions,Clouds,dailyrainin,SoftwareType,DateUTC
2013-01-09 00:03:00,19.0,17.0,30.31,WNW,296,0.0,1.0,92,0.00,,,-99.99,,2013-01-09 05:03:00,
2013-01-09 00:12:00,19.0,17.0,30.31,WNW,296,0.0,1.0,92,0.00,,,-99.99,,2013-01-09 05:12:00,
2013-01-09 00:22:00,19.0,17.0,30.31,WNW,296,0.0,0.0,93,0.00,,,-99.99,,2013-01-09 05:22:00,
2013-01-09 00:33:00,19.0,17.0,30.31,WNW,296,0.0,0.0,93,0.00,,,-99.99,,2013-01-09 05:33:00,
2013-01-09 00:42:00,19.0,17.0,30.31,WNW,296,0.0,0.0,93,0.00,,,-99.99,,2013-01-09 05:42:00,
2013-01-09 00:53:00,19.0,17.0,30.32,WNW,296,0.0,1.0,92,0.00,,,-99.99,,2013-01-09 05:53:00,
2013-01-09 01:02:00,18.0,16.0,30.32,WNW,296,0.0,0.0,93,0.00,,,-99.99,,2013-01-09 06:02:00,
2013-01-09 01:12:00,18.0,16.0,30.32,WNW,296,0.0,0.0,93,0.00,,,-99.99,,2013-01-09 06:12:00,
2013-01-09 01:22:00,18.0,16.0,30.32,WNW,296,0.0,1.0,93,0.00,,,-99.99,,2013-01-09 06:22:00,
2013-01-09 01:32:00,18.0,16.0,30.33,WNW,296,0.0,0.0,93,0.00,,,-99.99,,2013-01-09 06:32:00,
2013-01-09 01:42:00,18.0,16.0,30.33,WNW,296,0.0,0.0,93,0.00,,,-99.99,,2013-01-09 06:42:00,
2013-01-09 01:52:00,18.0,16.0,30.34,WNW,296,0.0,0.0,93,0.00,,,-99.99,,2013-01-09 06:52:00,
2013-01-09 02:02:00,17.0,15.0,30.34,WNW,296,0.0,0.0,93,0.00,,,-99.99,,2013-01-09 07:02:00,
2013-01-09 02:12:00,17.0,15.0,30.34,WNW,296,0.0,0.0,93,0.00,,,-99.99,,2013-01-09 07:12:00,
2013-01-09 02:22:00,16.0,14.0,30.35,WNW,296,1.0,1.0,92,0.00,,,-99.99,,2013-01-09 07:22:00,
2013-01-09 02:32:00,16.0,14.0,30.35,WNW,296,0.0,0.0,92,0.00,,,-99.99,,2013-01-09 07:32:00,
2013-01-09 02:42:00,16.0,14.0,30.35,WNW,296,0.0,0.0,92,0.00,,,-99.99,,2013-01-09 07:42:00,
2013-01-09 02:52:00,16.0,14.0,30.35,WNW,296,0.0,1.0,92,0.00,,,-99.99,,2013-01-09 07:52:00,
2013-01-09 03:02:00,16.0,14.0,30.35,WNW,296,0.0,0.0,93,0.00,,,-99.99,,2013-01-09 08:02:00,
2013-01-09 03:12:00,16.0,14.0,30.35,WNW,296,0.0,0.0,93,0.00,,,-99.99,,2013-01-09 08:12:00,
2013-01-09 03:22:00,15.0,13.0,30.34,WNW,296,0.0,0.0,92,0.00,,,-99.99,,2013-01-09 08:22:00,
2013-01-09 03:32:00,15.0,13.0,30.34,WNW,296,0.0,0.0,92,0.00,,,-99.99,,2013-01-09 08:32:00,
2013-01-09 03:42:00,15.0,13.0,30.34,WNW,296,0.0,0.0,92,0.00,,,-99.99,,2013-01-09 08:42:00,
2013-01-09 03:53:00,14.0,12.0,30.34,WNW,296,0.0,0.0,92,0.00,,,-99.99,,2013-01-09 08:53:00,
2013-01-09 04:02:00,14.0,12.0,30.34,WNW,296,0.0,0.0,92,0.00,,,-99.99,,2013-01-09 09:02:00,
2013-01-09 04:12:00,14.0,12.0,30.34,WNW,296,0.0,0.0,92,0.00,,,-99.99,,2013-01-09 09:12:00,
2013-01-09 04:22:00,14.0,12.0,30.34,WNW,296,0.0,2.0,92,0.00,,,-99.99,,2013-01-09 09:22:00,
2013-01-09 04:32:00,13.0,11.0,30.34,WNW,296,1.0,1.0,92,0.00,,,-99.99,,2013-01-09 09:32:00,
2013-01-09 04:42:00,13.0,11.0,30.34,WNW,296,1.0,1.0,92,0.00,,,-99.99,,2013-01-09 09:42:00,
2013-01-09 04:53:00,14.0,12.0,30.33,WNW,296,0.0,0.0,92,0.00,,,-99.99,,2013-01-09 09:53:00,
2013-01-09 05:02:00,14.0,12.0,30.33,WNW,296,1.0,2.0,92,0.00,,,-99.99,,2013-01-09 10:02:00,
2013-01-09 05:12:00,14.0,12.0,30.33,WNW,296,1.0,2.0,92,0.00,,,-99.99,,2013-01-09 10:12:00,
2013-01-09 05:22:00,13.0,11.0,30.33,WNW,296,0.0,2.0,92,0.00,,,-99.99,,2013-01-09 10:22:00,
2013-01-09 05:32:00,13.0,11.0,30.34,WNW,296,0.0,0.0,91,0.00,,,-99.99,,2013-01-09 10:32:00,
2013-01-09 05:42:00,13.0,11.0,30.34,WNW,296,0.0,0.0,91,0.00,,,-99.99,,2013-01-09 10:42:00,
2013-01-09 05:52:00,13.0,11.0,30.34,WNW,296,0.0,0.0,91,0.00,,,-99.99,,2013-01-09 10:52:00,
2013-01-09 06:02:00,12.0,10.0,30.35,WNW,296,0.0,0.0,91,0.00,,,-99.99,,2013-01-09 11:02:00,
2013-01-09 06:12:00,12.0,10.0,30.35,WNW,296,0.0,0.0,91,0.00,,,-99.99,,2013-01-09 11:12:00,
2013-01-09 06:22:00,12.0,10.0,30.35,WNW,296,0.0,0.0,91,0.00,,,-99.99,,2013-01-09 11:22:00,
2013-01-09 06:33:00,11.0,9.0,30.35,WNW,296,0.0,0.0,91,0.00,,,-99.99,,2013-01-09 11:33:00,
2013-01-09 06:42:00,11.0,9.0,30.35,WNW,296,0.0,0.0,91,0.00,,,-99.99,,2013-01-09 11:42:00,
2013-01-09 06:53:00,11.0,9.0,30.36,WNW,296,0.0,0.0,91,0.00,,,-99.99,,2013-01-09 11:53:00,
2013-01-09 07:03:00,11.0,9.0,30.37,WNW,296,0.0,0.0,91,0.00,,,-99.99,,2013-01-09 12:03:00,
2013-01-09 07:12:00,11.0,9.0,30.37,WNW,296,0.0,0.0,91,0.00,,,-99.99,,2013-01-09 12:12:00,
2013-01-09 07:23:00,10.0,8.0,30.37,WNW,296,0.0,0.0,91,0.00,,,-99.99,,2013-01-09 12:23:00,
2013-01-09 07:33:00,10.0,8.0,30.38,WNW,296,0.0,0.0,90,0.00,,,-99.99,,2013-01-09 12:33:00,
2013-01-09 07:43:00,10.0,8.0,30.38,WNW,296,0.0,0.0,90,0.00,,,-99.99,,2013-01-09 12:43:00,
2013-01-09 07:52:00,10.0,8.0,30.38,WNW,296,0.0,0.0,91,0.00,,,-99.99,,2013-01-09 12:52:00,
2013-01-09 08:03:00,10.0,8.0,30.39,WNW,296,0.0,2.0,91,0.00,,,-99.99,,2013-01-09 13:03:00,
2013-01-09 08:12:00,10.0,8.0,30.39,WNW,296,0.0,2.0,91,0.00,,,-99.99,,2013-01-09 13:12:00,
2013-01-09 08:23:00,10.0,8.0,30.39,WNW,296,0.0,0.0,91,0.00,,,-99.99,,2013-01-09 13:23:00,
2013-01-09 08:33:00,11.0,9.0,30.39,WNW,296,0.0,0.0,92,0.00,,,-99.99,,2013-01-09 13:33:00,
2013-01-09 08:43:00,11.0,9.0,30.39,WNW,296,0.0,0.0,92,0.00,,,-99.99,,2013-01-09 13:43:00,
2013-01-09 08:53:00,11.0,9.0,30.38,WNW,296,0.0,0.0,92,0.00,,,-99.99,,2013-01-09 13:53:00,
2013-01-09 09:03:00,13.0,12.0,30.37,WNW,296,0.0,0.0,94,0.00,,,-99.99,,2013-01-09 14:03:00,
2013-01-09 09:12:00,13.0,12.0,30.37,WNW,296,0.0,0.0,94,0.00,,,-99.99,,2013-01-09 14:12:00,
2013-01-09 09:23:00,15.0,14.0,30.37,WNW,296,0.0,0.0,95,0.00,,,-99.99,,2013-01-09 14:23:00,
2013-01-09 09:33:00,19.0,18.0,30.37,WNW,296,0.0,0.0,95,0.00,,,-99.99,,2013-01-09 14:33:00,
2013-01-09 09:43:00,19.0,18.0,30.37,WNW,296,0.0,0.0,95,0.00,,,-99.99,,2013-01-09 14:43:00,
2013-01-09 09:53:00,23.0,22.0,30.37,WNW,296,0.0,1.0,94,0.00,,,-99.99,,2013-01-09 14:53:00,
2013-01-09 10:03:00,27.0,24.0,30.36,WNW,296,0.0,1.0,89,0.00,,,-99.99,,2013-01-09 15:03:00,
2013-01-09 10:13:00,27.0,24.0,30.36,WNW,296,0.0,1.0,89,0.00,,,-99.99,,2013-01-09 15:13:00,
2013-01-09 10:23:00,28.0,24.0,30.36,WNW,296,0.0,0.0,85,0.00,,,-99.99,,2013-01-09 15:23:00,
2013-01-09 10:33:00,32.0,27.0,30.35,WNW,296,0.0,2.0,81,0.00,,,-99.99,,2013-01-09 15:33:00,
2013-01-09 10:43:00,32.0,27.0,30.35,WNW,296,0.0,2.0,81,0.00,,,-99.99,,2013-01-09 15:43:00,
2013-01-09 10:53:00,33.0,27.0,30.34,WNW,296,0.0,0.0,78,0.00,,,-99.99,,2013-01-09 15:53:00,
2013-01-09 11:03:00,35.0,28.0,30.33,WNW,296,0.0,0.0,75,0.00,,,-99.99,,2013-01-09 16:03:00,
2013-01-09 11:12:00,35.0,28.0,30.33,WNW,296,0.0,0.0,75,0.00,,,-99.99,,2013-01-09 16:12:00,
2013-01-09 11:23:00,37.0,27.0,30.32,WNW,296,0.0,0.0,68,0.00,,,-99.99,,2013-01-09 16:23:00,
2013-01-09 11:33:00,38.0,28.0,30.32,WNW,296,0.0,0.0,66,0.00,,,-99.99,,2013-01-09 16:33:00,
2013-01-09 11:43:00,38.0,28.0,30.32,WNW,296,0.0,0.0,66,0.00,,,-99.99,,2013-01-09 16:43:00,
2013-01-09 11:53:00,39.0,29.0,30.30,WNW,296,0.0,1.0,66,0.00,,,-99.99,,2013-01-09 16:53:00,
2013-01-09 12:03:00,38.0,27.0,30.27,South,180,1.0,6.0,65,0.00,,,-99.99,,2013-01-09 17:03:00,
2013-01-09 12:12:00,38.0,27.0,30.27,South,180,1.0,6.0,65,0.00,,,-99.99,,2013-01-09 17:12:00,
2013-01-09 12:23:00,38.0,28.0,30.26,South,178,0.0,5.0,66,0.00,,,-99.99,,2013-01-09 17:23:00,
2013-01-09 12:33:00,38.0,28.0,30.24,South,191,4.0,6.0,66,0.00,,,-99.99,,2013-01-09 17:33:00,
2013-01-09 12:43:00,38.0,28.0,30.24,South,191,4.0,6.0,66,0.00,,,-99.99,,2013-01-09 17:43:00,
2013-01-09 12:53:00,38.0,28.0,30.22,South,175,0.0,6.0,67,0.00,,,-99.99,,2013-01-09 17:53:00,
2013-01-09 13:03:00,37.0,28.0,30.22,SW,219,1.0,4.0,71,0.00,,,-99.99,,2013-01-09 18:03:00,
2013-01-09 13:12:00,37.0,28.0,30.22,SW,219,1.0,4.0,71,0.00,,,-99.99,,2013-01-09 18:12:00,
2013-01-09 13:24:00,37.0,29.0,30.21,SSW,192,0.0,4.0,72,0.00,,,-99.99,,2013-01-09 18:24:00,
2013-01-09 13:33:00,37.0,29.0,30.21,South,190,0.0,4.0,73,0.00,,,-99.99,,2013-01-09 18:33:00,
2013-01-09 13:43:00,37.0,29.0,30.21,South,190,0.0,4.0,73,0.00,,,-99.99,,2013-01-09 18:43:00,
2013-01-09 13:53:00,37.0,29.0,30.20,South,180,0.0,5.0,74,0.00,,,-99.99,,2013-01-09 18:53:00,
2013-01-09 14:03:00,37.0,30.0,30.20,South,180,0.0,1.0,75,0.00,,,-99.99,,2013-01-09 19:03:00,
2013-01-09 14:13:00,37.0,30.0,30.20,South,180,0.0,1.0,75,0.00,,,-99.99,,2013-01-09 19:13:00,
2013-01-09 14:23:00,37.0,30.0,30.19,South,180,0.0,0.0,76,0.00,,,-99.99,,2013-01-09 19:23:00,
2013-01-09 14:33:00,36.0,29.0,30.16,South,180,0.0,0.0,77,0.00,,,-99.99,,2013-01-09 19:33:00,
2013-01-09 14:43:00,36.0,29.0,30.16,South,180,0.0,0.0,77,0.00,,,-99.99,,2013-01-09 19:43:00,
2013-01-09 14:53:00,36.0,30.0,30.13,South,180,0.0,0.0,78,0.00,,,-99.99,,2013-01-09 19:53:00,
2013-01-09 15:03:00,36.0,31.0,30.11,South,180,0.0,0.0,81,0.00,,,-99.99,,2013-01-09 20:03:00,
2013-01-09 15:12:00,36.0,31.0,30.11,South,180,0.0,0.0,81,0.00,,,-99.99,,2013-01-09 20:12:00,
2013-01-09 15:23:00,36.0,31.0,30.11,South,180,0.0,0.0,81,0.00,,,-99.99,,2013-01-09 20:23:00,
2013-01-09 15:33:00,36.0,31.0,30.09,South,180,0.0,1.0,83,0.00,,,-99.99,,2013-01-09 20:33:00,
2013-01-09 15:43:00,36.0,31.0,30.09,South,180,0.0,1.0,83,0.00,,,-99.99,,2013-01-09 20:43:00,
2013-01-09 15:53:00,35.0,31.0,30.09,South,180,0.0,0.0,84,0.00,,,-99.99,,2013-01-09 20:53:00,
2013-01-09 16:03:00,35.0,31.0,30.09,South,180,0.0,0.0,86,0.00,,,-99.99,,2013-01-09 21:03:00,
2013-01-09 16:13:00,35.0,31.0,30.09,South,180,0.0,0.0,86,0.00,,,-99.99,,2013-01-09 21:13:00,
2013-01-09 16:23:00,35.0,31.0,30.07,South,180,1.0,1.0,86,0.00,,,-99.99,,2013-01-09 21:23:00,
2013-01-09 16:33:00,35.0,32.0,30.08,SSW,196,0.0,4.0,90,0.00,,,-99.99,,2013-01-09 21:33:00,
2013-01-09 16:43:00,35.0,32.0,30.08,SSW,196,0.0,4.0,90,0.00,,,-99.99,,2013-01-09 21:43:00,
2013-01-09 16:52:00,36.0,34.0,30.08,SSW,207,0.0,7.0,93,0.00,,,-99.99,,2013-01-09 21:52:00,
2013-01-09 17:03:00,38.0,35.0,30.06,SSW,207,4.0,6.0,90,0.00,,,-99.99,,2013-01-09 22:03:00,
2013-01-09 17:12:00,38.0,35.0,30.06,SSW,207,4.0,6.0,90,0.00,,,-99.99,,2013-01-09 22:12:00,
2013-01-09 17:23:00,38.0,35.0,30.03,SSW,199,1.0,5.0,88,0.00,,,-99.99,,2013-01-09 22:23:00,
2013-01-09 17:33:00,38.0,35.0,30.02,SE,145,1.0,5.0,88,0.00,,,-99.99,,2013-01-09 22:33:00,
2013-01-09 17:43:00,38.0,35.0,30.02,SE,145,1.0,5.0,88,0.00,,,-99.99,,2013-01-09 22:43:00,
2013-01-09 17:53:00,37.0,34.0,30.01,SE,145,0.0,3.0,88,0.00,,,-99.99,,2013-01-09 22:53:00,
2013-01-09 18:03:00,37.0,34.0,29.98,South,182,0.0,6.0,90,0.00,,,-99.99,,2013-01-09 23:03:00,
2013-01-09 18:13:00,37.0,34.0,29.98,South,182,0.0,6.0,90,0.00,,,-99.99,,2013-01-09 23:13:00,
2013-01-09 18:23:00,37.0,34.0,29.97,SSW,208,0.0,5.0,90,0.00,,,-99.99,,2013-01-09 23:23:00,
2013-01-09 18:33:00,38.0,35.0,29.97,South,176,0.0,7.0,89,0.00,,,-99.99,,2013-01-09 23:33:00,
2013-01-09 18:43:00,38.0,35.0,29.97,South,176,0.0,7.0,89,0.00,,,-99.99,,2013-01-09 23:43:00,
2013-01-09 18:53:00,38.0,35.0,29.96,South,189,1.0,5.0,89,0.00,,,-99.99,,2013-01-09 23:53:00,
2013-01-09 19:03:00,38.0,35.0,29.93,South,182,0.0,4.0,89,0.00,,,-99.99,,2013-01-10 00:03:00,
2013-01-09 19:12:00,38.0,35.0,29.93,South,182,0.0,4.0,89,0.00,,,-99.99,,2013-01-10 00:12:00,
2013-01-09 19:22:00,38.0,36.0,29.93,SSW,193,0.0,6.0,91,0.00,,,-99.99,,2013-01-10 00:22:00,
2013-01-09 19:32:00,39.0,36.0,29.91,WSW,245,0.0,4.0,90,0.00,,,-99.99,,2013-01-10 00:32:00,
2013-01-09 19:42:00,39.0,36.0,29.91,WSW,245,0.0,4.0,90,0.00,,,-99.99,,2013-01-10 00:42:00,
2013-01-09 19:53:00,38.0,35.0,29.90,WSW,245,0.0,0.0,90,0.00,,,-99.99,,2013-01-10 00:53:00,
2013-01-09 20:02:00,37.0,34.0,29.89,WSW,245,0.0,0.0,90,0.00,,,-99.99,,2013-01-10 01:02:00,
2013-01-09 20:12:00,37.0,34.0,29.89,WSW,245,0.0,0.0,90,0.00,,,-99.99,,2013-01-10 01:12:00,
2013-01-09 20:22:00,36.0,34.0,29.88,WSW,245,0.0,1.0,92,0.00,,,-99.99,,2013-01-10 01:22:00,
2013-01-09 20:33:00,35.0,33.0,29.87,WSW,246,0.0,0.0,94,0.00,,,-99.99,,2013-01-10 01:33:00,
2013-01-09 20:43:00,35.0,33.0,29.87,WSW,246,0.0,0.0,94,0.00,,,-99.99,,2013-01-10 01:43:00,
2013-01-09 20:53:00,35.0,34.0,29.86,WSW,245,0.0,2.0,95,0.00,,,-99.99,,2013-01-10 01:53:00,
2013-01-09 21:03:00,37.0,36.0,29.85,SW,221,2.0,6.0,97,0.00,,,-99.99,,2013-01-10 02:03:00,
2013-01-09 21:12:00,37.0,36.0,29.85,SW,221,2.0,6.0,97,0.00,,,-99.99,,2013-01-10 02:12:00,
2013-01-09 21:22:00,38.0,37.0,29.84,SW,226,0.0,5.0,97,0.00,,,-99.99,,2013-01-10 02:22:00,
2013-01-09 21:33:00,39.0,38.0,29.84,SSW,198,0.0,9.0,96,0.00,,,-99.99,,2013-01-10 02:33:00,
2013-01-09 21:42:00,39.0,38.0,29.84,SSW,198,0.0,9.0,96,0.00,,,-99.99,,2013-01-10 02:42:00,
2013-01-09 21:53:00,39.0,38.0,29.84,SSW,198,0.0,9.0,96,0.00,,,-99.99,,2013-01-10 02:53:00,
2013-01-09 22:03:00,38.0,37.0,29.82,SW,224,1.0,5.0,95,0.00,,,-99.99,,2013-01-10 03:03:00,
2013-01-09 22:12:00,38.0,37.0,29.82,SW,224,1.0,5.0,95,0.00,,,-99.99,,2013-01-10 03:12:00,
2013-01-09 22:22:00,38.0,37.0,29.80,SSW,208,0.0,5.0,95,0.00,,,-99.99,,2013-01-10 03:22:00,
2013-01-09 22:33:00,38.0,37.0,29.79,WSW,245,0.0,8.0,95,0.00,,,-99.99,,2013-01-10 03:33:00,
2013-01-09 22:43:00,38.0,37.0,29.79,WSW,245,0.0,8.0,95,0.00,,,-99.99,,2013-01-10 03:43:00,
2013-01-09 22:52:00,37.0,36.0,29.79,West,280,0.0,4.0,95,0.00,,,-99.99,,2013-01-10 03:52:00,
2013-01-09 23:02:00,37.0,36.0,29.79,West,280,2.0,5.0,95,0.00,,,-99.99,,2013-01-10 04:02:00,
2013-01-09 23:12:00,37.0,36.0,29.79,West,280,2.0,5.0,95,0.00,,,-99.99,,2013-01-10 04:12:00,
2013-01-09 23:22:00,37.0,35.0,29.79,West,264,1.0,6.0,94,0.00,,,-99.99,,2013-01-10 04:22:00,
2013-01-09 23:32:00,37.0,35.0,29.78,WSW,240,6.0,13.0,92,0.00,,,-99.99,,2013-01-10 04:32:00,
2013-01-09 23:43:00,37.0,35.0,29.78,WSW,240,6.0,13.0,92,0.00,,,-99.99,,2013-01-10 04:43:00,
2013-01-09 23:53:00,37.0,35.0,29.78,SW,228,5.0,7.0,91,0.00,,,-99.99,,2013-01-10 04:53:00,